Time;durP1;ratioP1;P1;durP2;ratioP2;P2;SDS_P1;SDS_P2;PMS_P1;PMS_P2;Temp;Humidity;BMP_temperature;BMP_pressure;BME280_temperature;BME280_humidity;BME280_pressure;Samples;Min_cycle;Max_cycle;Signal;HPM_P1;HPM_P2
2021/10/31 00:02:51;;;;;;;23.60;14.00;;;;;;;;;;139417;1180;97631;-80
2021/10/31 00:05:55;;;;;;;21.80;13.80;;;;;;;;;;139439;1190;97683;-81
2021/10/31 00:08:59;;;;;;;23.30;15.00;;;;;;;;;;139438;1190;98900;-80
2021/10/31 00:12:03;;;;;;;22.50;14.00;;;;;;;;;;139359;1191;98490;-78
2021/10/31 00:15:07;;;;;;;22.40;14.20;;;;;;;;;;139321;1188;98961;-80
2021/10/31 00:18:11;;;;;;;21.00;13.50;;;;;;;;;;139508;1190;97636;-82
2021/10/31 00:21:15;;;;;;;23.20;14.50;;;;;;;;;;139824;1189;97665;-83
2021/10/31 00:24:19;;;;;;;21.50;14.20;;;;;;;;;;139515;1189;97620;-81
2021/10/31 00:27:23;;;;;;;24.90;14.80;;;;;;;;;;139385;1188;97637;-81
2021/10/31 00:30:27;;;;;;;23.30;13.60;;;;;;;;;;139455;1190;98656;-81
2021/10/31 00:33:31;;;;;;;22.90;14.30;;;;;;;;;;139447;1190;98924;-81
2021/10/31 00:36:36;;;;;;;23.20;14.20;;;;;;;;;;139636;1190;97743;-80
2021/10/31 00:39:40;;;;;;;22.30;14.20;;;;;;;;;;139647;1190;97720;-83
2021/10/31 00:42:44;;;;;;;23.10;14.00;;;;;;;;;;139376;1189;97736;-83
2021/10/31 00:45:49;;;;;;;22.70;13.90;;;;;;;;;;140006;1190;97781;-79
2021/10/31 00:48:53;;;;;;;21.90;13.20;;;;;;;;;;139742;1190;98900;-80
2021/10/31 00:51:57;;;;;;;21.40;12.60;;;;;;;;;;140118;1190;98896;-81
2021/10/31 00:55:01;;;;;;;23.80;14.00;;;;;;;;;;139836;1190;97672;-79
2021/10/31 00:58:05;;;;;;;24.20;14.40;;;;;;;;;;139572;1190;97660;-80
2021/10/31 01:01:09;;;;;;;24.20;14.80;;;;;;;;;;139545;1190;98502;-80
2021/10/31 01:04:19;;;;;;;23.60;15.20;;;;;;;;;;139380;1189;99003;-81
2021/10/31 01:07:37;;;;;;;24.60;14.30;;;;;;;;;;139438;1189;98927;-82
2021/10/31 01:10:47;;;;;;;20.10;14.20;;;;;;;;;;139316;1193;97775;-81
2021/10/31 01:14:07;;;;;;;23.90;15.00;;;;;;;;;;139406;1190;98931;-80
2021/10/31 01:17:20;;;;;;;22.90;13.80;;;;;;;;;;139415;1190;97683;-80
2021/10/31 01:20:28;;;;;;;24.20;14.20;;;;;;;;;;139444;1190;97773;-81
2021/10/31 01:23:40;;;;;;;24.20;14.60;;;;;;;;;;139463;1190;97656;-80
2021/10/31 01:26:49;;;;;;;25.20;14.70;;;;;;;;;;139482;1189;97684;-81
2021/10/31 01:30:00;;;;;;;23.40;14.50;;;;;;;;;;139418;1189;97647;-81
2021/10/31 01:33:09;;;;;;;23.80;15.10;;;;;;;;;;139410;1190;97643;-77
2021/10/31 01:36:17;;;;;;;20.60;12.40;;;;;;;;;;139274;1190;97650;-80
2021/10/31 01:39:24;;;;;;;21.90;13.20;;;;;;;;;;139364;1191;97730;-81
2021/10/31 01:42:29;;;;;;;26.40;14.40;;;;;;;;;;139490;1190;97722;-81
2021/10/31 01:45:38;;;;;;;24.30;14.40;;;;;;;;;;139363;1190;98456;-82
2021/10/31 01:48:50;;;;;;;22.20;14.90;;;;;;;;;;139470;1190;98931;-80
2021/10/31 01:51:55;;;;;;;22.10;14.50;;;;;;;;;;139369;1190;98517;-81
2021/10/31 01:55:01;;;;;;;25.40;15.50;;;;;;;;;;139404;1189;98900;-81
2021/10/31 01:58:05;;;;;;;24.10;14.50;;;;;;;;;;139409;1189;97659;-79
2021/10/31 02:01:10;;;;;;;23.50;14.80;;;;;;;;;;139343;1189;98441;-80
2021/10/31 02:04:15;;;;;;;23.60;14.80;;;;;;;;;;139507;1190;97657;-79
2021/10/31 02:07:20;;;;;;;24.10;14.60;;;;;;;;;;139409;1194;99008;-78
2021/10/31 02:10:24;;;;;;;24.30;14.60;;;;;;;;;;139843;1189;97740;-78
2021/10/31 02:13:29;;;;;;;23.20;14.50;;;;;;;;;;139524;1190;98565;-79
2021/10/31 02:16:34;;;;;;;22.90;14.60;;;;;;;;;;139371;1188;97665;-81
2021/10/31 02:19:39;;;;;;;23.70;14.20;;;;;;;;;;139416;1190;98248;-80
2021/10/31 02:22:45;;;;;;;22.20;13.10;;;;;;;;;;139436;1189;97650;-80
2021/10/31 02:25:48;;;;;;;24.20;13.70;;;;;;;;;;139362;1190;99021;-80
2021/10/31 02:28:57;;;;;;;23.80;13.60;;;;;;;;;;139388;1189;98930;-79
2021/10/31 02:32:00;;;;;;;24.10;14.50;;;;;;;;;;139356;1190;97717;-81
2021/10/31 02:35:08;;;;;;;25.30;14.40;;;;;;;;;;139454;1190;97650;-79
2021/10/31 02:38:12;;;;;;;22.80;13.40;;;;;;;;;;139464;1190;97691;-79
2021/10/31 02:41:16;;;;;;;24.90;14.30;;;;;;;;;;139384;1190;98028;-78
2021/10/31 02:44:20;;;;;;;25.90;14.00;;;;;;;;;;139330;1190;98903;-79
2021/10/31 02:47:26;;;;;;;21.50;13.50;;;;;;;;;;139332;1190;99006;-78
2021/10/31 02:50:32;;;;;;;22.40;14.30;;;;;;;;;;139397;1190;97642;-79
2021/10/31 02:53:38;;;;;;;21.70;13.90;;;;;;;;;;139400;1190;97648;-79
2021/10/31 02:56:45;;;;;;;22.80;14.80;;;;;;;;;;139355;1189;97753;-79
2021/10/31 02:59:51;;;;;;;22.80;14.20;;;;;;;;;;139368;1188;97631;-78
2021/10/31 03:02:56;;;;;;;22.20;13.20;;;;;;;;;;139394;1190;98924;-80
2021/10/31 03:06:01;;;;;;;22.10;14.10;;;;;;;;;;139366;1189;97703;-83
2021/10/31 03:09:05;;;;;;;20.30;12.50;;;;;;;;;;139541;1189;97732;-82
2021/10/31 03:12:09;;;;;;;21.30;12.60;;;;;;;;;;139380;1190;97641;-81
2021/10/31 03:15:13;;;;;;;21.40;13.40;;;;;;;;;;139415;1189;98920;-80
2021/10/31 03:18:17;;;;;;;21.60;13.40;;;;;;;;;;139403;1189;98482;-82
2021/10/31 03:21:21;;;;;;;23.80;14.00;;;;;;;;;;139391;1188;97672;-82
2021/10/31 03:24:25;;;;;;;20.90;13.80;;;;;;;;;;139394;1190;97667;-81
2021/10/31 03:27:29;;;;;;;22.60;13.30;;;;;;;;;;139531;1190;98910;-81
2021/10/31 03:30:34;;;;;;;20.80;14.00;;;;;;;;;;139380;1188;97666;-78
2021/10/31 03:33:37;;;;;;;22.40;14.10;;;;;;;;;;139296;1188;97741;-79
2021/10/31 03:36:41;;;;;;;22.70;13.60;;;;;;;;;;139306;1190;98488;-79
2021/10/31 03:39:45;;;;;;;25.30;13.70;;;;;;;;;;139347;1193;98997;-79
2021/10/31 03:42:49;;;;;;;21.60;13.60;;;;;;;;;;139392;1189;97650;-78
2021/10/31 03:45:53;;;;;;;21.20;13.30;;;;;;;;;;139335;1190;98914;-79
2021/10/31 03:48:57;;;;;;;20.70;13.30;;;;;;;;;;139353;1195;97922;-80
2021/10/31 03:52:01;;;;;;;22.00;13.80;;;;;;;;;;139329;1180;97627;-79
2021/10/31 03:55:07;;;;;;;20.10;12.50;;;;;;;;;;139307;1189;99025;-79
2021/10/31 03:58:11;;;;;;;20.80;12.30;;;;;;;;;;139338;1190;97734;-79
2021/10/31 04:01:15;;;;;;;22.90;13.20;;;;;;;;;;139290;1190;99006;-79
2021/10/31 04:04:19;;;;;;;21.10;13.10;;;;;;;;;;139297;1174;98475;-77
2021/10/31 04:07:23;;;;;;;21.60;13.60;;;;;;;;;;139313;1190;98907;-78
2021/10/31 04:10:27;;;;;;;21.40;13.20;;;;;;;;;;139229;1189;97779;-78
2021/10/31 04:13:35;;;;;;;20.40;13.40;;;;;;;;;;139375;1189;98443;-81
2021/10/31 04:16:40;;;;;;;21.50;13.10;;;;;;;;;;139281;1187;97699;-78
2021/10/31 04:19:44;;;;;;;18.90;12.80;;;;;;;;;;139470;1190;97654;-77
2021/10/31 04:22:48;;;;;;;20.70;12.90;;;;;;;;;;139243;1190;97746;-79
2021/10/31 04:25:52;;;;;;;22.30;13.80;;;;;;;;;;139268;1189;98061;-80
2021/10/31 04:28:55;;;;;;;20.80;13.40;;;;;;;;;;139357;1189;97678;-81
2021/10/31 04:31:59;;;;;;;20.90;13.70;;;;;;;;;;139388;1189;97656;-79
2021/10/31 04:35:03;;;;;;;20.50;12.80;;;;;;;;;;139407;1190;98904;-81
2021/10/31 04:38:12;;;;;;;22.20;12.20;;;;;;;;;;139443;1189;97765;-81
2021/10/31 04:41:16;;;;;;;21.60;13.10;;;;;;;;;;139403;1190;98919;-79
2021/10/31 04:44:19;;;;;;;20.50;12.80;;;;;;;;;;139276;1191;97718;-78
2021/10/31 04:47:23;;;;;;;20.70;13.20;;;;;;;;;;139267;1190;98886;-79
2021/10/31 04:50:27;;;;;;;30.10;18.90;;;;;;;;;;139352;1189;98906;-79
2021/10/31 04:53:31;;;;;;;22.60;13.10;;;;;;;;;;139224;1190;98911;-78
2021/10/31 04:56:35;;;;;;;35.10;21.60;;;;;;;;;;139157;1190;98064;-78
2021/10/31 04:59:39;;;;;;;50.90;29.10;;;;;;;;;;139273;1190;97829;-77
2021/10/31 05:02:42;;;;;;;30.30;17.70;;;;;;;;;;139362;1190;98930;-78
2021/10/31 05:05:46;;;;;;;20.50;13.70;;;;;;;;;;139224;1190;97772;-78
2021/10/31 05:08:50;;;;;;;21.40;14.10;;;;;;;;;;139210;1189;98505;-78
2021/10/31 05:11:54;;;;;;;19.20;13.00;;;;;;;;;;139225;1189;97604;-79
2021/10/31 05:14:58;;;;;;;20.70;13.30;;;;;;;;;;139198;1190;97733;-76
2021/10/31 05:18:02;;;;;;;21.60;11.90;;;;;;;;;;139205;1189;98907;-76
2021/10/31 05:21:07;;;;;;;21.40;11.50;;;;;;;;;;139211;1190;98917;-78
2021/10/31 05:24:11;;;;;;;20.40;12.50;;;;;;;;;;139189;1190;98911;-78
2021/10/31 05:27:15;;;;;;;19.70;12.50;;;;;;;;;;139319;1190;97654;-78
2021/10/31 05:30:19;;;;;;;21.70;12.60;;;;;;;;;;139221;1189;97684;-79
2021/10/31 05:33:24;;;;;;;23.10;15.30;;;;;;;;;;139242;1190;98491;-78
2021/10/31 05:36:28;;;;;;;21.70;12.90;;;;;;;;;;139246;1190;98909;-80
2021/10/31 05:39:32;;;;;;;20.20;12.50;;;;;;;;;;139482;1190;98175;-80
2021/10/31 05:42:36;;;;;;;21.10;13.10;;;;;;;;;;139540;1190;97707;-81
2021/10/31 05:45:40;;;;;;;20.80;13.10;;;;;;;;;;139498;1189;98774;-81
2021/10/31 05:48:43;;;;;;;18.70;12.40;;;;;;;;;;139413;1189;97726;-82
2021/10/31 05:51:47;;;;;;;21.40;12.90;;;;;;;;;;139424;1189;98141;-82
2021/10/31 05:54:51;;;;;;;22.50;13.70;;;;;;;;;;139889;1189;97642;-82
2021/10/31 05:57:55;;;;;;;22.40;14.50;;;;;;;;;;139442;1189;97979;-82
2021/10/31 06:00:59;;;;;;;24.80;15.20;;;;;;;;;;139514;1190;98063;-79
2021/10/31 06:04:04;;;;;;;23.60;13.50;;;;;;;;;;139276;1190;98578;-78
2021/10/31 06:07:08;;;;;;;21.10;12.70;;;;;;;;;;139298;1189;97665;-80
2021/10/31 06:10:12;;;;;;;24.40;14.20;;;;;;;;;;139447;1190;97751;-81
2021/10/31 06:13:18;;;;;;;20.70;13.10;;;;;;;;;;139380;1190;97690;-79
2021/10/31 06:16:22;;;;;;;20.10;13.20;;;;;;;;;;139221;1190;97746;-83
2021/10/31 06:19:26;;;;;;;21.60;14.10;;;;;;;;;;139617;1188;98894;-77
2021/10/31 06:22:30;;;;;;;19.50;12.90;;;;;;;;;;139507;1189;97643;-86
2021/10/31 06:25:34;;;;;;;19.70;12.60;;;;;;;;;;139258;1189;98474;-82
2021/10/31 06:28:38;;;;;;;21.10;14.20;;;;;;;;;;139336;1190;97705;-81
2021/10/31 06:31:42;;;;;;;22.20;13.60;;;;;;;;;;139395;1190;97738;-86
2021/10/31 06:34:46;;;;;;;20.10;13.20;;;;;;;;;;139436;1189;98268;-85
2021/10/31 06:37:50;;;;;;;21.40;14.40;;;;;;;;;;139407;1189;98483;-86
2021/10/31 06:40:54;;;;;;;27.00;19.10;;;;;;;;;;139581;1185;97732;-86
2021/10/31 06:43:57;;;;;;;19.70;13.70;;;;;;;;;;139366;1191;98907;-81
2021/10/31 06:47:02;;;;;;;21.90;13.50;;;;;;;;;;139401;1188;97636;-83
2021/10/31 06:50:08;;;;;;;19.40;12.30;;;;;;;;;;139802;1190;97664;-78
2021/10/31 06:53:12;;;;;;;18.60;12.00;;;;;;;;;;139681;1189;97637;-82
2021/10/31 06:56:16;;;;;;;19.80;12.50;;;;;;;;;;139878;1188;99048;-79
2021/10/31 06:59:20;;;;;;;18.80;12.90;;;;;;;;;;139530;1189;97728;-81
2021/10/31 07:02:24;;;;;;;73.40;44.10;;;;;;;;;;139563;1190;97666;-86
2021/10/31 07:05:28;;;;;;;28.20;17.20;;;;;;;;;;139992;1190;97699;-86
2021/10/31 07:08:32;;;;;;;22.40;14.00;;;;;;;;;;139692;1190;97641;-85
2021/10/31 07:11:35;;;;;;;23.90;14.20;;;;;;;;;;139654;1190;98899;-89
2021/10/31 07:14:39;;;;;;;78.20;54.30;;;;;;;;;;139789;1190;98911;-83
2021/10/31 07:17:44;;;;;;;27.60;18.10;;;;;;;;;;139835;1190;98447;-78
2021/10/31 07:20:48;;;;;;;23.40;15.30;;;;;;;;;;139396;1189;97649;-80
2021/10/31 07:23:52;;;;;;;27.70;18.90;;;;;;;;;;139365;1189;98944;-80
2021/10/31 07:26:56;;;;;;;22.40;14.50;;;;;;;;;;139321;1190;98896;-80
2021/10/31 07:30:00;;;;;;;22.80;16.30;;;;;;;;;;139373;1190;97671;-80
2021/10/31 07:33:04;;;;;;;18.30;12.70;;;;;;;;;;139413;1189;98021;-84
2021/10/31 07:36:08;;;;;;;22.70;13.40;;;;;;;;;;139494;1190;98910;-83
2021/10/31 07:39:12;;;;;;;52.40;37.60;;;;;;;;;;139685;1190;97654;-89
2021/10/31 07:42:16;;;;;;;23.00;15.90;;;;;;;;;;139449;1189;98990;-83
2021/10/31 07:45:20;;;;;;;19.40;13.40;;;;;;;;;;139481;1189;97663;-86
2021/10/31 07:48:24;;;;;;;16.40;10.90;;;;;;;;;;139723;1189;97721;-81
2021/10/31 07:51:28;;;;;;;15.50;10.60;;;;;;;;;;139365;1189;98946;-82
2021/10/31 07:54:31;;;;;;;14.20;10.00;;;;;;;;;;139390;1189;97630;-88
2021/10/31 07:57:35;;;;;;;15.50;11.00;;;;;;;;;;139348;1189;98502;-80
2021/10/31 08:00:39;;;;;;;16.40;10.90;;;;;;;;;;139269;1190;97719;-84
2021/10/31 08:03:44;;;;;;;17.00;10.60;;;;;;;;;;139393;1189;97680;-84
2021/10/31 08:06:48;;;;;;;16.10;11.10;;;;;;;;;;139457;1189;98554;-85
2021/10/31 08:09:52;;;;;;;18.80;11.90;;;;;;;;;;139407;1189;97676;-84
2021/10/31 08:12:55;;;;;;;15.50;11.10;;;;;;;;;;139389;1182;97688;-84
2021/10/31 08:15:59;;;;;;;15.80;11.00;;;;;;;;;;139250;1190;98947;-82
2021/10/31 08:19:03;;;;;;;16.50;10.50;;;;;;;;;;139374;1190;98484;-80
2021/10/31 08:22:07;;;;;;;18.50;11.40;;;;;;;;;;139331;1190;97639;-81
2021/10/31 08:25:11;;;;;;;14.60;9.90;;;;;;;;;;139621;1189;98894;-80
2021/10/31 08:28:16;;;;;;;15.00;10.30;;;;;;;;;;139322;1190;97668;-81
2021/10/31 08:31:25;;;;;;;16.20;10.60;;;;;;;;;;139771;1182;98060;-77
2021/10/31 08:34:29;;;;;;;14.80;11.00;;;;;;;;;;139386;1190;97663;-80
2021/10/31 08:37:33;;;;;;;17.40;11.20;;;;;;;;;;139589;1190;98919;-80
2021/10/31 08:40:37;;;;;;;16.70;10.40;;;;;;;;;;139435;1182;97664;-83
2021/10/31 08:43:41;;;;;;;15.60;10.40;;;;;;;;;;139677;1189;97768;-86
2021/10/31 08:46:45;;;;;;;16.60;10.70;;;;;;;;;;140071;1182;97781;-81
2021/10/31 08:49:49;;;;;;;15.90;10.60;;;;;;;;;;139902;1180;97985;-82
2021/10/31 08:52:53;;;;;;;13.90;10.20;;;;;;;;;;139577;1190;98906;-79
2021/10/31 08:55:57;;;;;;;16.70;11.70;;;;;;;;;;139539;1180;97672;-83
2021/10/31 08:59:01;;;;;;;14.50;10.60;;;;;;;;;;139434;1188;97693;-83
2021/10/31 09:02:05;;;;;;;13.00;10.10;;;;;;;;;;139393;1180;97655;-86
2021/10/31 09:05:10;;;;;;;15.30;10.40;;;;;;;;;;139443;1190;98971;-85
2021/10/31 09:08:14;;;;;;;15.40;10.40;;;;;;;;;;139578;1181;97644;-88
2021/10/31 09:11:18;;;;;;;16.80;10.30;;;;;;;;;;139423;1190;98930;-81
2021/10/31 09:14:22;;;;;;;15.80;10.70;;;;;;;;;;139486;1189;98061;-87
2021/10/31 09:17:26;;;;;;;16.20;10.90;;;;;;;;;;139522;1189;97633;-86
2021/10/31 09:20:31;;;;;;;15.10;10.40;;;;;;;;;;139531;1188;97825;-84
2021/10/31 09:23:36;;;;;;;15.80;10.80;;;;;;;;;;139527;1189;98456;-83
2021/10/31 09:26:40;;;;;;;16.50;10.70;;;;;;;;;;139415;1189;97653;-89
2021/10/31 09:29:44;;;;;;;14.40;10.00;;;;;;;;;;139448;1189;97744;-87
2021/10/31 09:32:50;;;;;;;17.00;10.40;;;;;;;;;;139429;1189;98929;-88
2021/10/31 09:35:56;;;;;;;14.90;10.30;;;;;;;;;;139420;1181;97682;-88
2021/10/31 09:39:02;;;;;;;14.70;10.30;;;;;;;;;;139583;1181;98466;-80
2021/10/31 09:42:06;;;;;;;15.10;10.70;;;;;;;;;;140280;1189;98897;-83
2021/10/31 09:45:12;;;;;;;16.80;10.90;;;;;;;;;;139975;1189;98900;-79
2021/10/31 09:48:17;;;;;;;15.30;11.20;;;;;;;;;;139775;1182;97655;-82
2021/10/31 09:51:22;;;;;;;13.00;9.70;;;;;;;;;;139712;1190;98496;-79
2021/10/31 09:54:26;;;;;;;15.50;10.00;;;;;;;;;;139776;1189;98123;-85
2021/10/31 09:57:30;;;;;;;20.50;11.00;;;;;;;;;;139661;1184;97657;-85
2021/10/31 10:00:35;;;;;;;15.10;10.30;;;;;;;;;;139671;1190;97628;-85
2021/10/31 10:03:39;;;;;;;13.80;10.90;;;;;;;;;;139733;1180;97778;-82
2021/10/31 10:06:51;;;;;;;15.10;10.50;;;;;;;;;;140008;1189;98901;-87
2021/10/31 10:09:55;;;;;;;17.10;12.10;;;;;;;;;;139947;1181;97667;-80
2021/10/31 10:13:15;;;;;;;18.00;11.20;;;;;;;;;;139607;1181;98035;-78
2021/10/31 10:16:28;;;;;;;16.00;10.70;;;;;;;;;;139610;1181;98475;-83
2021/10/31 10:19:33;;;;;;;15.80;10.90;;;;;;;;;;139609;1181;97660;-81
2021/10/31 10:22:37;;;;;;;15.80;10.50;;;;;;;;;;139766;1189;97631;-76
2021/10/31 10:25:42;;;;;;;15.00;10.40;;;;;;;;;;139410;1189;98924;-76
2021/10/31 10:28:46;;;;;;;14.50;10.60;;;;;;;;;;139425;1181;98467;-80
2021/10/31 10:31:50;;;;;;;15.70;11.60;;;;;;;;;;139555;1181;97630;-77
2021/10/31 10:34:56;;;;;;;14.90;10.40;;;;;;;;;;139580;1189;97664;-77
2021/10/31 10:38:15;;;;;;;15.90;10.60;;;;;;;;;;139466;1181;97769;-78
2021/10/31 10:41:32;;;;;;;16.30;10.20;;;;;;;;;;139459;1190;98896;-75
2021/10/31 10:44:37;;;;;;;16.00;10.50;;;;;;;;;;139334;1182;98922;-75
2021/10/31 10:47:42;;;;;;;16.70;10.40;;;;;;;;;;139482;1182;97746;-77
2021/10/31 10:50:46;;;;;;;14.10;10.60;;;;;;;;;;139310;1182;97668;-75
2021/10/31 10:54:08;;;;;;;14.60;10.90;;;;;;;;;;139307;1190;98951;-76
2021/10/31 10:57:12;;;;;;;14.60;10.30;;;;;;;;;;139359;1182;98928;-76
2021/10/31 11:00:18;;;;;;;15.00;11.50;;;;;;;;;;139453;1190;97608;-77
2021/10/31 11:03:29;;;;;;;13.80;10.40;;;;;;;;;;139240;1190;97646;-76
2021/10/31 11:06:33;;;;;;;16.30;10.60;;;;;;;;;;139490;1182;98941;-85
2021/10/31 11:09:43;;;;;;;14.10;10.50;;;;;;;;;;140128;1189;97619;-84
2021/10/31 11:12:48;;;;;;;15.30;10.60;;;;;;;;;;140408;1190;97692;-78
2021/10/31 11:15:53;;;;;;;14.70;9.70;;;;;;;;;;139425;1183;98896;-75
2021/10/31 11:18:57;;;;;;;14.30;10.10;;;;;;;;;;139392;1182;98906;-78
2021/10/31 11:22:01;;;;;;;13.40;9.70;;;;;;;;;;139330;1182;97738;-77
2021/10/31 11:25:07;;;;;;;15.00;10.20;;;;;;;;;;139285;1190;97681;-77
2021/10/31 11:28:13;;;;;;;13.80;9.80;;;;;;;;;;139355;1190;97677;-79
2021/10/31 11:31:17;;;;;;;13.50;9.60;;;;;;;;;;139600;1182;98116;-85
2021/10/31 11:34:21;;;;;;;14.60;9.20;;;;;;;;;;139489;1189;97702;-78
2021/10/31 11:37:26;;;;;;;12.70;9.20;;;;;;;;;;139364;1189;98897;-79
2021/10/31 11:40:32;;;;;;;12.40;9.10;;;;;;;;;;139393;1189;97738;-78
2021/10/31 11:43:37;;;;;;;13.00;9.20;;;;;;;;;;139816;1192;97648;-84
2021/10/31 11:46:41;;;;;;;13.20;9.00;;;;;;;;;;139308;1189;98899;-81
2021/10/31 11:53:20;;;;;;;15.20;9.70;;;;;;;;;;136839;1209;635624;-79
2021/10/31 11:56:25;;;;;;;12.80;9.00;;;;;;;;;;138688;1195;95518;-79
2021/10/31 11:59:29;;;;;;;14.00;9.00;;;;;;;;;;138800;1193;95617;-80
2021/10/31 12:02:44;;;;;;;11.90;7.90;;;;;;;;;;138851;1193;95782;-79
2021/10/31 12:05:49;;;;;;;12.30;8.50;;;;;;;;;;138789;1192;95586;-79
2021/10/31 12:08:55;;;;;;;12.50;8.40;;;;;;;;;;138835;1194;95652;-80
2021/10/31 12:12:07;;;;;;;13.20;8.70;;;;;;;;;;138807;1196;95668;-79
2021/10/31 12:15:11;;;;;;;11.70;8.10;;;;;;;;;;138890;1193;95669;-79
2021/10/31 12:18:15;;;;;;;12.90;8.60;;;;;;;;;;138799;1193;95631;-78
2021/10/31 12:21:19;;;;;;;12.90;8.40;;;;;;;;;;138798;1193;95955;-77
2021/10/31 12:24:34;;;;;;;12.10;8.40;;;;;;;;;;138766;1193;95677;-78
2021/10/31 12:27:43;;;;;;;11.20;8.00;;;;;;;;;;138751;1193;95627;-78
2021/10/31 12:30:47;;;;;;;10.60;8.10;;;;;;;;;;138785;1194;95551;-77
2021/10/31 12:34:11;;;;;;;12.20;8.50;;;;;;;;;;138866;1194;96585;-77
2021/10/31 12:37:26;;;;;;;12.60;8.40;;;;;;;;;;138794;1200;95795;-80
2021/10/31 12:40:42;;;;;;;12.50;8.40;;;;;;;;;;138781;1187;95705;-78
2021/10/31 12:43:47;;;;;;;11.50;8.30;;;;;;;;;;138929;1193;95759;-78
2021/10/31 12:47:04;;;;;;;12.50;8.60;;;;;;;;;;138682;1193;94959;-78
2021/10/31 12:50:10;;;;;;;12.30;8.60;;;;;;;;;;138810;1193;95619;-78
2021/10/31 12:53:14;;;;;;;13.40;8.00;;;;;;;;;;138770;1193;95665;-80
2021/10/31 12:56:18;;;;;;;12.20;7.80;;;;;;;;;;138781;1193;95580;-80
2021/10/31 12:59:22;;;;;;;12.50;8.10;;;;;;;;;;138896;1200;95755;-80
2021/10/31 13:02:26;;;;;;;10.90;7.50;;;;;;;;;;138864;1195;95817;-79
2021/10/31 13:05:31;;;;;;;12.30;8.30;;;;;;;;;;138632;1194;95747;-78
2021/10/31 13:08:35;;;;;;;11.40;7.90;;;;;;;;;;138524;1198;95795;-79
2021/10/31 13:11:39;;;;;;;12.30;8.80;;;;;;;;;;138854;1193;95597;-79
2021/10/31 13:14:43;;;;;;;14.20;9.60;;;;;;;;;;138710;1193;95747;-80
2021/10/31 13:17:49;;;;;;;12.00;8.10;;;;;;;;;;138756;1193;96225;-78
2021/10/31 13:20:59;;;;;;;11.40;7.80;;;;;;;;;;138692;1193;95793;-83
2021/10/31 13:24:06;;;;;;;11.00;8.10;;;;;;;;;;138740;1193;95666;-81
2021/10/31 13:27:16;;;;;;;12.70;8.30;;;;;;;;;;139286;1190;95725;-84
2021/10/31 13:30:20;;;;;;;10.40;7.40;;;;;;;;;;139265;1184;95651;-84
2021/10/31 13:33:34;;;;;;;9.70;6.90;;;;;;;;;;139189;1198;95821;-81
2021/10/31 13:36:39;;;;;;;9.80;7.10;;;;;;;;;;139278;1193;95826;-81
2021/10/31 13:39:53;;;;;;;10.50;7.00;;;;;;;;;;139236;1190;95870;-80
2021/10/31 13:42:56;;;;;;;10.10;7.10;;;;;;;;;;139343;1190;96316;-81
2021/10/31 13:46:01;;;;;;;10.20;7.40;;;;;;;;;;139090;1190;95765;-78
2021/10/31 13:49:06;;;;;;;11.80;7.50;;;;;;;;;;139187;1190;95800;-81
2021/10/31 13:52:10;;;;;;;9.40;6.50;;;;;;;;;;139278;1190;95507;-79
2021/10/31 13:55:15;;;;;;;11.20;7.60;;;;;;;;;;139070;1190;95777;-80
2021/10/31 13:58:21;;;;;;;11.40;7.60;;;;;;;;;;139153;1190;95817;-81
2021/10/31 14:01:33;;;;;;;11.50;7.70;;;;;;;;;;139141;1190;95640;-83
2021/10/31 14:04:37;;;;;;;13.40;7.00;;;;;;;;;;139181;1190;95781;-78
2021/10/31 14:07:42;;;;;;;10.50;7.40;;;;;;;;;;139094;1190;95558;-77
2021/10/31 14:10:47;;;;;;;11.00;7.70;;;;;;;;;;139236;1191;95672;-76
2021/10/31 14:13:52;;;;;;;10.40;7.40;;;;;;;;;;139086;1190;95040;-80
2021/10/31 14:16:56;;;;;;;10.40;7.40;;;;;;;;;;139046;1190;95749;-82
2021/10/31 14:20:00;;;;;;;12.40;7.50;;;;;;;;;;139334;1190;95749;-77
2021/10/31 14:23:04;;;;;;;10.30;7.20;;;;;;;;;;139226;1190;95742;-75
2021/10/31 14:26:09;;;;;;;10.70;7.30;;;;;;;;;;139383;1190;94943;-83
2021/10/31 14:29:23;;;;;;;11.00;7.60;;;;;;;;;;139057;1190;95679;-80
2021/10/31 14:32:40;;;;;;;12.40;7.90;;;;;;;;;;139196;1190;95603;-80
2021/10/31 14:35:46;;;;;;;9.90;7.20;;;;;;;;;;139154;1189;95808;-81
2021/10/31 14:38:56;;;;;;;11.50;7.60;;;;;;;;;;139084;1194;95946;-79
2021/10/31 14:42:00;;;;;;;14.90;10.40;;;;;;;;;;139133;1190;95636;-80
2021/10/31 14:45:04;;;;;;;11.10;8.00;;;;;;;;;;139122;1190;95678;-81
2021/10/31 14:48:21;;;;;;;10.20;7.30;;;;;;;;;;139105;1190;95623;-81
2021/10/31 14:51:29;;;;;;;11.60;7.70;;;;;;;;;;139155;1190;95699;-86
2021/10/31 14:54:35;;;;;;;10.70;7.40;;;;;;;;;;139268;1190;95487;-80
2021/10/31 14:57:44;;;;;;;10.40;7.40;;;;;;;;;;139477;1195;95787;-84
2021/10/31 15:00:50;;;;;;;11.90;7.70;;;;;;;;;;139267;1190;95769;-78
2021/10/31 15:03:54;;;;;;;12.10;7.30;;;;;;;;;;139223;1190;94931;-79
2021/10/31 15:06:58;;;;;;;12.10;7.60;;;;;;;;;;139262;1189;95780;-78
2021/10/31 15:10:04;;;;;;;9.30;6.80;;;;;;;;;;139305;1190;94964;-75
2021/10/31 15:13:08;;;;;;;9.80;6.80;;;;;;;;;;139252;1196;95755;-81
2021/10/31 15:16:12;;;;;;;10.10;7.10;;;;;;;;;;139223;1180;95770;-79
2021/10/31 15:19:17;;;;;;;10.40;7.10;;;;;;;;;;139535;1189;95614;-79
2021/10/31 15:22:21;;;;;;;11.40;7.70;;;;;;;;;;139270;1190;95629;-78
2021/10/31 15:25:25;;;;;;;10.20;7.90;;;;;;;;;;139414;1190;95905;-79
2021/10/31 15:28:29;;;;;;;10.20;7.20;;;;;;;;;;139293;1190;94957;-79
2021/10/31 15:31:33;;;;;;;9.70;7.40;;;;;;;;;;139259;1190;95787;-80
2021/10/31 15:34:37;;;;;;;12.10;8.30;;;;;;;;;;139257;1196;95625;-79
2021/10/31 15:37:41;;;;;;;11.10;7.90;;;;;;;;;;139323;1189;95703;-79
2021/10/31 15:40:44;;;;;;;13.40;8.40;;;;;;;;;;139254;1189;94965;-79
2021/10/31 15:43:52;;;;;;;12.30;8.40;;;;;;;;;;139184;1190;95640;-79
2021/10/31 15:46:56;;;;;;;11.70;8.40;;;;;;;;;;139208;1189;95555;-79
2021/10/31 15:50:00;;;;;;;12.50;8.30;;;;;;;;;;139214;1196;95817;-80
2021/10/31 15:53:04;;;;;;;12.80;8.20;;;;;;;;;;139233;1189;95671;-80
2021/10/31 15:56:07;;;;;;;12.10;8.50;;;;;;;;;;139187;1190;95713;-78
2021/10/31 15:59:11;;;;;;;17.30;11.60;;;;;;;;;;139182;1190;95585;-80
2021/10/31 16:02:20;;;;;;;18.40;10.60;;;;;;;;;;139241;1190;95761;-80
2021/10/31 16:05:24;;;;;;;15.70;10.80;;;;;;;;;;139191;1180;95578;-79
2021/10/31 16:08:29;;;;;;;18.10;10.20;;;;;;;;;;139239;1190;95607;-78
2021/10/31 16:11:33;;;;;;;13.90;10.10;;;;;;;;;;139336;1181;95111;-79
2021/10/31 16:14:38;;;;;;;14.60;9.40;;;;;;;;;;139246;1189;95358;-80
2021/10/31 16:17:43;;;;;;;16.60;10.70;;;;;;;;;;139234;1189;94933;-79
2021/10/31 16:20:52;;;;;;;23.60;15.40;;;;;;;;;;139246;1189;94966;-79
2021/10/31 16:23:57;;;;;;;25.30;15.30;;;;;;;;;;139277;1190;94982;-80
2021/10/31 16:27:02;;;;;;;21.70;12.80;;;;;;;;;;139434;1190;95804;-80
2021/10/31 16:30:08;;;;;;;21.40;11.80;;;;;;;;;;139241;1190;95793;-80
2021/10/31 16:33:12;;;;;;;16.60;10.30;;;;;;;;;;139261;1190;95767;-79
2021/10/31 16:36:17;;;;;;;19.40;11.90;;;;;;;;;;139220;1190;95042;-79
2021/10/31 16:39:22;;;;;;;17.70;11.20;;;;;;;;;;139199;1190;96295;-78
2021/10/31 16:42:28;;;;;;;17.50;11.00;;;;;;;;;;139275;1190;94935;-79
2021/10/31 16:45:32;;;;;;;18.70;11.90;;;;;;;;;;139217;1190;95057;-78
2021/10/31 16:48:38;;;;;;;18.50;12.40;;;;;;;;;;139252;1190;94993;-79
2021/10/31 16:51:42;;;;;;;23.40;14.90;;;;;;;;;;139234;1190;94942;-78
2021/10/31 16:54:47;;;;;;;21.50;13.10;;;;;;;;;;139218;1190;94942;-79
2021/10/31 16:57:52;;;;;;;20.20;13.10;;;;;;;;;;139221;1190;94983;-79
2021/10/31 17:00:57;;;;;;;21.10;12.30;;;;;;;;;;139175;1196;96196;-78
2021/10/31 17:04:03;;;;;;;32.30;18.70;;;;;;;;;;139224;1190;96338;-79
2021/10/31 17:07:08;;;;;;;53.40;30.00;;;;;;;;;;139169;1190;96285;-79
2021/10/31 17:10:22;;;;;;;31.80;18.40;;;;;;;;;;139239;1190;97123;-80
2021/10/31 17:13:32;;;;;;;30.40;18.50;;;;;;;;;;139223;1190;97601;-79
2021/10/31 17:16:44;;;;;;;53.20;32.20;;;;;;;;;;139330;1193;97164;-79
2021/10/31 17:19:49;;;;;;;43.00;25.20;;;;;;;;;;139246;1190;97534;-79
2021/10/31 17:22:53;;;;;;;65.80;36.30;;;;;;;;;;139254;1190;96302;-78
2021/10/31 17:26:01;;;;;;;46.00;26.50;;;;;;;;;;139275;1191;97177;-79
2021/10/31 17:29:06;;;;;;;37.70;22.80;;;;;;;;;;139213;1190;96279;-80
2021/10/31 17:32:10;;;;;;;37.60;22.40;;;;;;;;;;139224;1196;96327;-79
2021/10/31 17:35:14;;;;;;;44.70;26.60;;;;;;;;;;139232;1190;96262;-80
2021/10/31 17:38:19;;;;;;;46.30;26.10;;;;;;;;;;139237;1189;97145;-78
2021/10/31 17:41:23;;;;;;;44.40;23.60;;;;;;;;;;139296;1196;97146;-79
2021/10/31 17:44:35;;;;;;;51.60;27.20;;;;;;;;;;139202;1190;97566;-79
2021/10/31 17:47:40;;;;;;;64.90;33.60;;;;;;;;;;139206;1190;97567;-79
2021/10/31 17:50:44;;;;;;;70.20;35.60;;;;;;;;;;139224;1190;97558;-80
2021/10/31 17:53:49;;;;;;;62.30;33.20;;;;;;;;;;139194;1181;96630;-79